Time;durP1;ratioP1;P1;durP2;ratioP2;P2;SDS_P1;SDS_P2;PMS_P1;PMS_P2;Temp;Humidity;BMP_temperature;BMP_pressure;BME280_temperature;BME280_humidity;BME280_pressure;Samples;Min_cycle;Max_cycle;Signal;HPM_P1;HPM_P2
2022/11/11 00:01:12;;;;;;;121.65;53.52;;;;;;;3.88;100.00;99486.50;1705821;82;21199;-79
2022/11/11 00:03:40;;;;;;;108.95;52.80;;;;;;;3.89;100.00;99490.83;1712893;82;21025;-82
2022/11/11 00:06:13;;;;;;;107.07;54.38;;;;;;;3.88;100.00;99486.50;1706626;82;21462;-79
2022/11/11 00:08:40;;;;;;;113.80;51.68;;;;;;;3.86;100.00;99491.75;1701698;83;21013;-79
2022/11/11 00:11:10;;;;;;;113.97;55.88;;;;;;;3.82;100.00;99498.53;1705927;82;21047;-82
2022/11/11 00:13:38;;;;;;;108.15;56.13;;;;;;;3.81;100.00;99500.38;1685895;83;20996;-79
2022/11/11 00:16:10;;;;;;;123.07;55.95;;;;;;;3.79;100.00;99502.96;1713395;83;21344;-82
2022/11/11 00:26:40;;;;;;;107.65;53.13;;;;;;;3.85;100.00;99514.23;1713313;83;21711;-79
2022/11/11 00:29:07;;;;;;;104.97;51.13;;;;;;;3.89;100.00;99527.03;1713025;82;21426;-82
2022/11/11 00:31:34;;;;;;;107.27;50.03;;;;;;;3.95;100.00;99528.09;1724733;82;21059;-82
2022/11/11 00:34:01;;;;;;;107.78;52.60;;;;;;;4.00;100.00;99524.80;1736703;81;20996;-79
2022/11/11 00:36:28;;;;;;;105.47;52.90;;;;;;;3.99;100.00;99518.61;1712326;82;21271;-81
2022/11/11 00:38:57;;;;;;;94.70;49.18;;;;;;;4.00;100.00;99518.92;1712309;82;21617;-79
2022/11/11 00:41:25;;;;;;;93.65;47.88;;;;;;;4.04;100.00;99520.19;1712097;83;26349;-79
2022/11/11 00:43:52;;;;;;;86.32;47.85;;;;;;;4.12;100.00;99517.84;1712249;82;21021;-79
2022/11/11 00:51:50;;;;;;;104.40;54.33;;;;;;;4.37;100.00;99526.17;1713505;83;21672;-82
2022/11/11 00:54:17;;;;;;;104.30;56.77;;;;;;;4.39;100.00;99528.95;1713093;82;21006;-82
2022/11/11 00:56:44;;;;;;;101.92;57.65;;;;;;;4.38;100.00;99526.48;1713346;83;21025;-79
2022/11/11 00:59:11;;;;;;;106.35;57.80;;;;;;;4.39;100.00;99534.32;1711834;82;21022;-82
2022/11/11 01:01:38;;;;;;;103.72;57.83;;;;;;;4.38;100.00;99526.48;1711685;83;21065;-79
2022/11/11 01:04:05;;;;;;;101.25;52.80;;;;;;;4.35;100.00;99520.16;1711859;82;21762;-82
2022/11/11 01:06:32;;;;;;;100.80;52.60;;;;;;;4.30;100.00;99523.47;1712060;83;21066;-82
2022/11/11 01:09:04;;;;;;;96.12;51.73;;;;;;;4.25;100.00;99517.34;1711611;82;21014;-79
2022/11/11 01:11:31;;;;;;;96.30;49.48;;;;;;;4.23;100.00;99515.91;1711905;83;21489;-82
2022/11/11 01:13:58;;;;;;;107.87;57.35;;;;;;;4.20;100.00;99514.46;1711803;82;21042;-80
2022/11/11 01:16:25;;;;;;;108.47;58.85;;;;;;;4.22;100.00;99510.23;1711976;83;21013;-82
2022/11/11 01:18:52;;;;;;;114.25;59.10;;;;;;;4.24;100.00;99514.88;1711746;82;21018;-82
2022/11/11 01:21:23;;;;;;;107.87;56.65;;;;;;;4.26;100.00;99514.15;1711998;83;21073;-82
2022/11/11 01:23:51;;;;;;;88.58;50.05;;;;;;;4.25;100.00;99517.34;1711581;82;21062;-78
2022/11/11 01:26:26;;;;;;;92.15;49.08;;;;;;;4.18;100.00;99514.33;1712071;83;21056;-82
2022/11/11 01:28:54;;;;;;;89.50;48.68;;;;;;;4.10;100.00;99515.36;1711791;82;21030;-79
2022/11/11 01:31:23;;;;;;;93.52;48.42;;;;;;;4.08;100.00;99521.42;1712479;83;21070;-79
2022/11/11 01:33:50;;;;;;;89.45;49.45;;;;;;;4.05;100.00;99507.59;1713502;83;21018;-80
2022/11/11 01:36:19;;;;;;;103.30;49.98;;;;;;;4.00;100.00;99511.39;1713460;83;21567;-82
2022/11/11 01:38:56;;;;;;;101.95;55.03;;;;;;;3.93;100.00;99507.33;1702838;83;21023;-82
2022/11/11 01:41:33;;;;;;;98.92;55.40;;;;;;;3.90;100.00;99506.41;1713627;83;21070;-79
2022/11/11 01:44:11;;;;;;;108.12;56.00;;;;;;;3.84;100.00;99504.00;1713128;83;21038;-82
2022/11/11 01:46:55;;;;;;;104.17;52.85;;;;;;;3.80;100.00;99506.78;1713716;82;22984;-82
2022/11/11 01:49:53;;;;;;;106.80;58.65;;;;;;;3.72;100.00;99508.28;1713264;82;21023;-82
2022/11/11 01:52:31;;;;;;;97.90;50.45;;;;;;;3.68;100.00;99503.85;1713640;83;21026;-79
2022/11/11 01:55:17;;;;;;;98.97;50.55;;;;;;;3.64;100.00;99509.80;1713757;82;21092;-79
2022/11/11 01:57:55;;;;;;;89.52;50.78;;;;;;;3.60;100.00;99511.23;1716397;83;21078;-82
2022/11/11 02:00:22;;;;;;;94.03;49.45;;;;;;;3.59;100.00;99504.19;1718614;83;21436;-79
2022/11/11 02:03:02;;;;;;;95.07;49.42;;;;;;;3.56;100.00;99509.95;1718382;83;21017;-79
2022/11/11 02:05:41;;;;;;;97.42;51.35;;;;;;;3.53;100.00;99509.85;1690656;83;21011;-78
2022/11/11 02:08:32;;;;;;;85.65;45.20;;;;;;;3.56;100.00;99513.98;1718534;82;20977;-82
2022/11/11 02:14:34;;;;;;;90.07;47.48;;;;;;;3.60;100.00;99507.21;1718515;83;21456;-79
2022/11/11 02:16:30;;;;;;;85.92;46.05;;;;;;;3.62;100.00;99523.92;1718394;83;21051;-79
2022/11/11 02:18:56;;;;;;;79.77;43.20;;;;;;;3.66;100.00;99524.64;1718310;83;20988;-78
2022/11/11 02:21:31;;;;;;;73.85;42.65;;;;;;;3.74;100.00;99511.59;1718522;83;21008;-82
2022/11/11 02:24:06;;;;;;;77.70;38.98;;;;;;;3.79;100.00;99520.39;1717132;83;21016;-82
2022/11/11 02:26:34;;;;;;;81.45;39.20;;;;;;;3.83;100.00;99518.95;1718262;83;21032;-82
2022/11/11 02:29:01;;;;;;;73.15;39.15;;;;;;;3.89;100.00;99523.01;1718244;83;21012;-79
2022/11/11 02:31:28;;;;;;;77.95;43.10;;;;;;;3.98;100.00;99528.20;1716347;83;21053;-81
2022/11/11 02:33:55;;;;;;;82.17;45.05;;;;;;;4.02;100.00;99533.50;1713159;82;20983;-81
2022/11/11 02:36:22;;;;;;;75.92;40.70;;;;;;;4.08;100.00;99524.11;1713288;83;21053;-82
2022/11/11 02:38:48;;;;;;;75.10;44.30;;;;;;;4.14;100.00;99523.31;1713084;83;21538;-79
2022/11/11 02:44:02;;;;;;;71.65;43.17;;;;;;;4.22;100.00;99529.84;1713147;83;21070;-82
2022/11/11 02:46:28;;;;;;;84.35;45.98;;;;;;;4.20;100.00;99537.78;1713318;83;21173;-82
2022/11/11 02:48:55;;;;;;;78.10;42.80;;;;;;;4.19;100.00;99545.01;1713161;83;21416;-82
2022/11/11 02:51:22;;;;;;;76.25;43.40;;;;;;;4.16;100.00;99539.20;1713391;83;20980;-83
2022/11/11 02:53:49;;;;;;;75.28;43.60;;;;;;;4.17;100.00;99538.17;1713148;83;21034;-82
2022/11/11 02:57:05;;;;;;;71.42;39.23;;;;;;;4.21;100.00;99548.83;1713478;83;21026;-82
2022/11/11 02:58:45;;;;;;;60.28;34.38;;;;;;;4.23;100.00;99548.93;1714393;83;21659;-79
2022/11/11 03:01:12;;;;;;;66.00;36.53;;;;;;;4.29;100.00;99547.83;1718478;83;21039;-82
2022/11/11 03:03:38;;;;;;;64.45;36.25;;;;;;;4.34;100.00;99542.66;1718344;83;21055;-82
2022/11/11 03:06:05;;;;;;;68.97;38.25;;;;;;;4.38;100.00;99546.09;1718645;83;20996;-82
2022/11/11 03:08:32;;;;;;;64.97;36.38;;;;;;;4.39;100.00;99550.42;1712807;82;21033;-82
2022/11/11 03:10:59;;;;;;;64.62;36.20;;;;;;;4.37;100.00;99557.86;1711916;83;21655;-80
2022/11/11 03:13:26;;;;;;;68.87;40.40;;;;;;;4.36;100.00;99555.36;1711506;82;21262;-82
2022/11/11 03:15:53;;;;;;;64.32;38.20;;;;;;;4.33;100.00;99553.91;1711851;83;21085;-79
2022/11/11 03:18:20;;;;;;;70.05;37.55;;;;;;;4.32;100.00;99550.09;1711613;82;21013;-79
2022/11/11 03:21:05;;;;;;;64.85;36.15;;;;;;;4.33;100.00;99541.83;1711919;83;21013;-82
2022/11/11 03:23:32;;;;;;;67.72;38.42;;;;;;;4.31;100.00;99547.92;1711568;82;21438;-79
2022/11/11 03:25:58;;;;;;;70.83;37.60;;;;;;;4.21;100.00;99547.48;1711797;83;21084;-82
2022/11/11 03:28:25;;;;;;;64.87;36.25;;;;;;;4.22;100.00;99545.94;1711665;82;21165;-82
2022/11/11 03:30:52;;;;;;;75.35;42.15;;;;;;;4.21;100.00;99544.80;1716284;82;21017;-79
2022/11/11 03:33:19;;;;;;;72.53;42.78;;;;;;;4.18;100.00;99537.96;1738084;81;21047;-81
2022/11/11 03:35:46;;;;;;;72.10;41.20;;;;;;;4.18;100.00;99544.67;1738301;82;21740;-82
2022/11/11 03:38:23;;;;;;;64.53;38.38;;;;;;;4.18;100.00;99542.50;1737966;81;21131;-83
2022/11/11 03:40:55;;;;;;;63.68;37.45;;;;;;;4.15;100.00;99533.52;1738247;82;21524;-79
2022/11/11 03:43:25;;;;;;;73.47;38.13;;;;;;;4.15;100.00;99534.35;1738006;81;21028;-79
2022/11/11 03:45:53;;;;;;;64.40;39.58;;;;;;;4.09;100.00;99542.37;1738273;82;21063;-82
2022/11/11 03:48:20;;;;;;;60.83;38.17;;;;;;;4.06;100.00;99535.56;1736674;81;21191;-82
2022/11/11 03:50:47;;;;;;;66.95;40.23;;;;;;;4.05;100.00;99540.61;1711853;83;21022;-78
2022/11/11 03:53:15;;;;;;;64.47;38.45;;;;;;;4.06;100.00;99552.17;1711594;82;21042;-79
2022/11/11 03:55:42;;;;;;;65.17;35.55;;;;;;;4.09;100.00;99546.39;1711864;83;21086;-79
2022/11/11 03:58:09;;;;;;;66.45;35.50;;;;;;;4.10;100.00;99550.24;1712902;82;21010;-79
2022/11/11 04:00:36;;;;;;;64.75;37.53;;;;;;;4.12;100.00;99549.52;1713470;82;21022;-82
2022/11/11 04:11:38;;;;;;;59.27;33.25;;;;;;;4.20;100.00;99542.64;1713523;82;21593;-79
2022/11/11 04:16:56;;;;;;;90.15;44.50;;;;;;;4.21;100.00;99549.66;1713681;83;21048;-79
2022/11/11 04:22:08;;;;;;;76.67;39.55;;;;;;;4.32;100.00;99538.02;1713400;82;21057;-79
2022/11/11 04:27:20;;;;;;;65.80;37.10;;;;;;;4.31;100.00;99526.97;1713273;82;21652;-79
2022/11/11 04:29:48;;;;;;;58.75;34.70;;;;;;;4.23;100.00;99526.64;1713091;83;21014;-82
2022/11/11 04:32:37;;;;;;;61.55;38.10;;;;;;;4.16;100.00;99519.08;1702846;83;21035;-82
2022/11/11 04:35:09;;;;;;;65.05;39.18;;;;;;;4.11;100.00;99516.19;1713212;82;21474;-79
2022/11/11 04:37:46;;;;;;;72.12;38.48;;;;;;;4.06;100.00;99517.30;1713342;83;21534;-82
2022/11/11 04:42:58;;;;;;;64.32;38.98;;;;;;;3.93;100.00;99522.94;1713274;83;20995;-79
2022/11/11 04:45:29;;;;;;;62.55;37.25;;;;;;;3.91;100.00;99516.09;1713102;83;21010;-82
2022/11/11 04:47:59;;;;;;;62.43;35.25;;;;;;;3.86;100.00;99518.57;1713519;83;21018;-79
2022/11/11 04:50:31;;;;;;;61.13;33.80;;;;;;;3.79;100.00;99517.20;1713290;82;21431;-82
2022/11/11 04:52:59;;;;;;;53.70;33.55;;;;;;;3.73;100.00;99523.34;1713363;83;21578;-79
2022/11/11 04:58:11;;;;;;;63.02;34.55;;;;;;;3.69;100.00;99530.14;1712170;82;22258;-82
2022/11/11 05:00:38;;;;;;;47.25;31.37;;;;;;;3.61;100.00;99523.09;1711518;83;21089;-82
2022/11/11 05:03:14;;;;;;;50.78;29.98;;;;;;;3.59;100.00;99526.48;1711653;82;21561;-82
2022/11/11 05:08:55;;;;;;;56.25;32.58;;;;;;;3.56;100.00;99520.68;1694232;83;21453;-79
2022/11/11 05:11:28;;;;;;;60.00;34.90;;;;;;;3.59;100.00;99521.13;1711901;83;21030;-82
2022/11/11 05:22:30;;;;;;;61.05;34.40;;;;;;;3.37;100.00;99548.50;1711683;82;21002;-82
2022/11/11 05:27:42;;;;;;;58.75;33.58;;;;;;;3.28;100.00;99556.89;1694483;82;21002;-79
2022/11/11 05:30:10;;;;;;;53.80;31.77;;;;;;;3.29;100.00;99559.89;1711728;83;21009;-79
2022/11/11 05:32:38;;;;;;;51.95;32.28;;;;;;;3.33;100.00;99567.84;1735729;81;21039;-79
2022/11/11 05:35:06;;;;;;;54.88;33.60;;;;;;;3.39;100.00;99566.55;1737944;82;21459;-82
2022/11/11 05:37:33;;;;;;;55.73;32.33;;;;;;;3.43;100.00;99576.89;1738540;81;21028;-82
2022/11/11 05:40:00;;;;;;;60.83;34.90;;;;;;;3.45;100.00;99578.86;1738169;82;21051;-82
2022/11/11 05:42:26;;;;;;;56.53;31.97;;;;;;;3.44;100.00;99579.38;1738410;81;21127;-81
2022/11/11 05:44:53;;;;;;;58.13;35.20;;;;;;;3.47;100.00;99573.61;1738121;82;21021;-78
2022/11/11 05:47:20;;;;;;;71.55;46.30;;;;;;;3.50;100.00;99577.74;1738238;81;21483;-79
2022/11/11 05:49:47;;;;;;;56.00;33.28;;;;;;;3.52;100.00;99587.27;1738227;82;21027;-82
2022/11/11 05:52:17;;;;;;;47.62;30.08;;;;;;;3.52;100.00;99588.61;1738215;81;21040;-78
2022/11/11 05:54:44;;;;;;;55.73;33.73;;;;;;;3.51;100.00;99586.95;1738261;82;21059;-82
2022/11/11 05:57:11;;;;;;;55.78;33.83;;;;;;;3.52;100.00;99598.50;1729383;82;21013;-78
2022/11/11 05:59:38;;;;;;;49.48;29.85;;;;;;;3.51;100.00;99597.67;1713289;82;21095;-82
2022/11/11 06:02:05;;;;;;;50.67;30.85;;;;;;;3.49;100.00;99602.89;1713469;83;21013;-82
2022/11/11 06:04:34;;;;;;;49.18;29.15;;;;;;;3.52;100.00;99603.86;1713334;83;21009;-79
2022/11/11 06:07:01;;;;;;;50.78;30.80;;;;;;;3.57;100.00;99607.59;1713566;83;26501;-81
2022/11/11 06:09:28;;;;;;;62.75;38.42;;;;;;;3.67;100.00;99617.48;1713011;83;21503;-78
2022/11/11 06:11:54;;;;;;;65.95;41.37;;;;;;;3.74;100.00;99622.03;1713406;83;22120;-82
2022/11/11 06:14:21;;;;;;;107.87;70.35;;;;;;;3.74;100.00;99614.81;1712997;83;21010;-82
2022/11/11 06:16:48;;;;;;;74.45;50.10;;;;;;;3.79;100.00;99623.62;1713528;83;20958;-82
2022/11/11 06:19:15;;;;;;;73.40;46.95;;;;;;;3.75;100.00;99620.49;1713114;83;21501;-79
2022/11/11 06:21:57;;;;;;;70.92;43.13;;;;;;;3.77;100.00;99624.34;1713386;83;21588;-82
2022/11/11 06:24:24;;;;;;;73.00;45.20;;;;;;;3.75;100.00;99616.98;1713054;83;21052;-82
2022/11/11 06:26:51;;;;;;;76.57;48.30;;;;;;;3.80;100.00;99619.91;1713428;82;20962;-82
2022/11/11 06:29:18;;;;;;;67.70;39.05;;;;;;;3.83;100.00;99620.34;1713099;82;21564;-82
2022/11/11 06:31:45;;;;;;;59.67;38.35;;;;;;;3.80;100.00;99622.09;1705477;83;21025;-82
2022/11/11 06:34:12;;;;;;;63.25;39.60;;;;;;;3.78;100.00;99630.84;1698192;84;21105;-82
2022/11/11 06:36:39;;;;;;;66.85;38.58;;;;;;;3.81;100.00;99634.98;1698365;84;21081;-82
2022/11/11 06:39:06;;;;;;;64.10;39.40;;;;;;;3.86;100.00;99638.73;1698255;83;21021;-79
2022/11/11 06:41:32;;;;;;;72.58;43.55;;;;;;;3.94;100.00;99621.66;1698433;84;21058;-82
2022/11/11 06:43:59;;;;;;;55.92;31.33;;;;;;;3.98;100.00;99608.67;1698146;83;21020;-79
2022/11/11 06:46:26;;;;;;;49.23;30.20;;;;;;;4.14;100.00;99608.34;1698136;83;21001;-79
2022/11/11 06:48:53;;;;;;;59.50;33.73;;;;;;;4.29;100.00;99605.00;1698267;84;20986;-79
2022/11/11 06:51:20;;;;;;;55.83;33.30;;;;;;;4.43;100.00;99601.84;1698144;84;21023;-79
2022/11/11 06:53:47;;;;;;;59.15;37.50;;;;;;;4.55;100.00;99612.32;1698336;84;21073;-78
2022/11/11 06:56:14;;;;;;;56.85;35.30;;;;;;;4.62;100.00;99611.83;1698245;84;21026;-79
2022/11/11 06:58:41;;;;;;;65.80;35.48;;;;;;;4.73;100.00;99603.17;1711321;82;21058;-79
2022/11/11 07:01:08;;;;;;;61.18;36.33;;;;;;;4.79;100.00;99603.70;1711623;83;21006;-82
2022/11/11 07:03:35;;;;;;;59.13;36.50;;;;;;;4.85;100.00;99602.56;1711779;82;21025;-82
2022/11/11 07:06:03;;;;;;;59.40;37.93;;;;;;;4.82;100.00;99603.81;1711651;83;21261;-80
2022/11/11 07:08:30;;;;;;;58.05;34.05;;;;;;;4.89;100.00;99607.34;1711783;82;21018;-79
2022/11/11 07:10:57;;;;;;;58.15;34.95;;;;;;;4.97;100.00;99603.63;1711697;83;21744;-82
2022/11/11 07:13:24;;;;;;;55.43;32.40;;;;;;;5.09;100.00;99609.52;1711547;82;21439;-79
2022/11/11 07:15:51;;;;;;;54.83;35.33;;;;;;;5.16;100.00;99607.36;1711684;83;20997;-82
2022/11/11 07:18:18;;;;;;;48.23;29.85;;;;;;;5.23;100.00;99602.30;1711690;82;21072;-82
2022/11/11 07:20:45;;;;;;;42.62;28.05;;;;;;;5.33;100.00;99604.58;1711596;83;21072;-79
2022/11/11 07:23:12;;;;;;;47.30;31.02;;;;;;;5.45;100.00;99600.73;1711748;82;21423;-79
2022/11/11 07:25:38;;;;;;;49.03;30.90;;;;;;;5.54;100.00;99602.99;1711647;83;21139;-82
2022/11/11 07:28:05;;;;;;;56.65;32.73;;;;;;;5.68;100.00;99597.61;1711713;82;21013;-82
2022/11/11 07:30:32;;;;;;;54.55;32.35;;;;;;;5.77;100.00;99601.21;1711713;83;21085;-79
2022/11/11 07:32:59;;;;;;;55.10;33.05;;;;;;;5.88;100.00;99606.45;1713286;83;21030;-82
2022/11/11 07:35:26;;;;;;;58.92;36.30;;;;;;;5.97;100.00;99593.11;1713224;83;21153;-82
2022/11/11 07:37:53;;;;;;;64.32;39.25;;;;;;;6.02;100.00;99593.31;1713275;83;20990;-79
2022/11/11 07:40:20;;;;;;;58.85;35.25;;;;;;;6.07;100.00;99589.48;1713192;83;21454;-79
2022/11/11 07:42:47;;;;;;;75.40;45.20;;;;;;;6.19;100.00;99582.91;1713271;83;21038;-82
2022/11/11 07:45:14;;;;;;;78.75;44.65;;;;;;;6.26;100.00;99589.09;1713117;83;20998;-82
2022/11/11 07:47:43;;;;;;;71.33;41.18;;;;;;;6.30;100.00;99584.92;1713295;83;21018;-82
2022/11/11 07:50:10;;;;;;;58.75;36.48;;;;;;;6.41;100.00;99590.14;1713476;82;20997;-79
2022/11/11 07:52:37;;;;;;;52.35;30.88;;;;;;;6.54;100.00;99591.96;1703085;83;21005;-82
2022/11/11 07:55:05;;;;;;;48.05;31.77;;;;;;;6.68;100.00;99588.98;1713296;82;21406;-80
2022/11/11 07:57:32;;;;;;;48.13;32.43;;;;;;;6.74;100.00;99588.62;1713559;82;21581;-79
2022/11/11 07:59:59;;;;;;;41.48;26.87;;;;;;;6.89;100.00;99589.67;1713377;83;21622;-82
2022/11/11 08:02:25;;;;;;;42.30;28.00;;;;;;;7.03;100.00;99579.94;1713347;83;21125;-83
2022/11/11 08:04:52;;;;;;;44.58;28.77;;;;;;;7.14;100.00;99580.27;1713329;83;21089;-80
2022/11/11 08:07:19;;;;;;;40.40;26.45;;;;;;;7.26;100.00;99574.45;1713359;82;21048;-82
2022/11/11 08:09:46;;;;;;;37.80;22.50;;;;;;;7.34;100.00;99574.17;1713460;82;21127;-79
2022/11/11 08:14:58;;;;;;;41.80;26.27;;;;;;;7.42;100.00;99567.16;1713409;83;21018;-79
2022/11/11 08:17:25;;;;;;;49.67;30.00;;;;;;;7.43;100.00;99559.89;1713874;83;21144;-79
2022/11/11 08:19:52;;;;;;;53.38;31.50;;;;;;;7.44;100.00;99556.17;1714147;82;21057;-82
2022/11/11 08:22:19;;;;;;;44.77;27.82;;;;;;;7.46;100.00;99550.02;1714147;83;21521;-79
2022/11/11 08:24:46;;;;;;;42.03;26.68;;;;;;;7.58;100.00;99548.23;1714317;83;20970;-80
2022/11/11 08:27:12;;;;;;;39.55;25.02;;;;;;;7.63;100.00;99550.58;1714134;83;20989;-80
2022/11/11 08:29:39;;;;;;;42.53;27.00;;;;;;;7.71;100.00;99552.16;1714349;83;21003;-79
2022/11/11 08:32:06;;;;;;;34.60;22.90;;;;;;;7.80;100.00;99549.98;1704108;83;21001;-80
2022/11/11 08:34:33;;;;;;;34.83;20.82;;;;;;;7.91;100.00;99546.53;1699225;84;20954;-79
2022/11/11 08:37:00;;;;;;;30.30;19.73;;;;;;;8.03;100.00;99548.80;1699574;84;20982;-83
2022/11/11 08:39:27;;;;;;;29.32;18.00;;;;;;;8.23;100.00;99558.52;1699042;83;20993;-82
2022/11/11 08:41:54;;;;;;;25.60;17.37;;;;;;;8.36;100.00;99557.02;1698928;83;21041;-79
2022/11/11 08:44:21;;;;;;;24.92;15.88;;;;;;;8.51;100.00;99555.27;1699222;83;20986;-83
2022/11/11 08:46:48;;;;;;;23.27;12.70;;;;;;;8.66;100.00;99563.26;1699160;83;21775;-80
2022/11/11 08:49:15;;;;;;;23.57;11.30;;;;;;;8.80;100.00;99560.34;1699034;83;20959;-79
2022/11/11 08:51:42;;;;;;;23.65;11.97;;;;;;;8.95;100.00;99562.09;1699083;84;21421;-79
2022/11/11 08:54:09;;;;;;;20.75;13.65;;;;;;;9.05;100.00;99564.52;1699078;84;21057;-79
2022/11/11 08:56:36;;;;;;;22.80;14.30;;;;;;;9.15;100.00;99576.15;1700657;83;21557;-82
2022/11/11 08:59:03;;;;;;;20.30;11.30;;;;;;;9.21;100.00;99570.31;1714096;82;21033;-80
2022/11/11 09:01:30;;;;;;;19.52;13.10;;;;;;;9.27;100.00;99576.16;1713928;83;21338;-83
2022/11/11 09:03:57;;;;;;;19.90;11.75;;;;;;;9.27;100.00;99576.98;1713888;83;20966;-83
2022/11/11 09:06:23;;;;;;;23.90;13.75;;;;;;;9.31;100.00;99571.91;1714025;83;20966;-79
2022/11/11 09:08:50;;;;;;;25.48;13.58;;;;;;;9.35;100.00;99578.52;1714192;83;21409;-79
2022/11/11 09:11:17;;;;;;;21.05;13.35;;;;;;;9.45;100.00;99578.76;1714111;83;20958;-82
2022/11/11 09:13:46;;;;;;;22.90;15.40;;;;;;;9.56;100.00;99565.75;1714263;82;20950;-79
2022/11/11 09:16:13;;;;;;;22.30;13.03;;;;;;;9.65;100.00;99560.80;1714247;83;20985;-82
2022/11/11 09:18:40;;;;;;;25.35;14.35;;;;;;;9.74;100.00;99570.74;1714070;83;21009;-79
2022/11/11 09:21:07;;;;;;;26.30;15.05;;;;;;;9.82;100.00;99572.56;1714037;83;21505;-82
2022/11/11 09:23:34;;;;;;;15.78;10.58;;;;;;;9.94;100.00;99575.27;1714187;83;20993;-80
2022/11/11 09:26:03;;;;;;;21.27;12.00;;;;;;;10.03;100.00;99563.02;1714076;83;21003;-80
2022/11/11 09:28:32;;;;;;;22.20;12.73;;;;;;;10.13;100.00;99553.73;1714286;82;21466;-79
2022/11/11 09:31:00;;;;;;;20.72;13.40;;;;;;;10.27;100.00;99545.38;1711070;82;21061;-83
2022/11/11 09:33:27;;;;;;;19.90;12.07;;;;;;;10.43;100.00;99540.56;1699173;83;21002;-80
2022/11/11 09:35:53;;;;;;;20.68;12.53;;;;;;;10.60;100.00;99534.65;1699483;84;21402;-80
2022/11/11 09:38:20;;;;;;;17.82;11.28;;;;;;;10.72;100.00;99535.40;1699282;83;21002;-82
2022/11/11 09:41:14;;;;;;;20.17;10.50;;;;;;;10.84;100.00;99551.59;1699140;83;20962;-79
2022/11/11 09:43:54;;;;;;;17.37;10.00;;;;;;;10.92;100.00;99549.02;1699138;83;20982;-79
2022/11/11 09:46:45;;;;;;;17.05;9.20;;;;;;;10.97;100.00;99543.16;1699209;83;21034;-83
2022/11/11 09:49:26;;;;;;;14.38;8.83;;;;;;;11.08;100.00;99547.39;1699051;84;20971;-80
2022/11/11 09:52:23;;;;;;;16.97;9.85;;;;;;;11.18;100.00;99543.48;1699228;84;21070;-81
2022/11/11 09:54:58;;;;;;;18.15;10.55;;;;;;;11.27;100.00;99544.19;1699178;84;20990;-83
2022/11/11 09:57:38;;;;;;;15.95;8.90;;;;;;;11.40;100.00;99539.51;1705457;82;21129;-83
2022/11/11 10:00:27;;;;;;;17.20;9.45;;;;;;;11.52;100.00;99543.75;1712824;83;21444;-83
2022/11/11 10:03:05;;;;;;;14.68;9.68;;;;;;;11.59;100.00;99541.70;1711081;82;20991;-83
2022/11/11 10:05:51;;;;;;;16.85;8.95;;;;;;;11.65;100.00;99545.31;1712645;83;21089;-83
2022/11/11 10:08:34;;;;;;;14.35;8.78;;;;;;;11.72;100.00;99543.79;1712558;82;21006;-80
2022/11/11 10:11:03;;;;;;;16.27;8.60;;;;;;;11.81;100.00;99531.45;1712632;83;21496;-83
2022/11/11 10:13:32;;;;;;;14.75;7.58;;;;;;;11.81;100.00;99524.12;1712705;82;21466;-82
2022/11/11 10:16:28;;;;;;;15.93;9.95;;;;;;;11.85;100.00;99535.30;1712604;83;21527;-83
2022/11/11 10:19:04;;;;;;;16.40;9.38;;;;;;;11.88;100.00;99546.19;1712617;82;21041;-80
2022/11/11 10:21:53;;;;;;;15.35;8.70;;;;;;;11.90;100.00;99560.36;1695170;83;20966;-80
2022/11/11 10:24:32;;;;;;;15.70;10.13;;;;;;;11.90;100.00;99567.97;1712378;82;21455;-83
2022/11/11 10:27:03;;;;;;;13.65;8.78;;;;;;;11.84;100.00;99567.61;1712460;83;21013;-80
2022/11/11 10:29:35;;;;;;;29.18;16.23;;;;;;;11.80;100.00;99562.41;1712506;83;21483;-80
2022/11/11 10:32:20;;;;;;;35.28;18.73;;;;;;;11.79;97.97;99553.41;1713201;83;21035;-83
2022/11/11 10:34:47;;;;;;;32.08;19.37;;;;;;;11.76;99.61;99543.56;1714370;83;20999;-80
2022/11/11 10:37:39;;;;;;;25.88;13.78;;;;;;;11.78;100.00;99540.87;1714096;83;20999;-83
2022/11/11 10:40:23;;;;;;;16.85;10.55;;;;;;;11.95;100.00;99535.96;1714458;83;21022;-80
2022/11/11 10:42:49;;;;;;;16.65;8.15;;;;;;;12.13;99.10;99533.78;1714312;83;21018;-83
2022/11/11 10:45:57;;;;;;;13.32;7.80;;;;;;;12.33;95.81;99534.55;1714239;83;20999;-83
2022/11/11 10:49:02;;;;;;;7.50;4.92;;;;;;;12.56;97.16;99532.61;1714012;83;21481;-83
2022/11/11 10:51:42;;;;;;;12.73;7.37;;;;;;;12.74;91.58;99539.08;1714129;82;21026;-80
2022/11/11 10:54:13;;;;;;;13.43;8.00;;;;;;;12.94;93.35;99531.64;1713360;83;21422;-83
2022/11/11 10:57:01;;;;;;;8.65;5.22;;;;;;;13.15;89.82;99535.34;1714899;82;21083;-80
2022/11/11 10:59:53;;;;;;;8.98;4.12;;;;;;;13.21;91.07;99535.16;1719260;83;21224;-83
2022/11/11 11:02:27;;;;;;;14.93;8.15;;;;;;;13.32;92.08;99536.59;1718889;83;20996;-83
2022/11/11 11:05:17;;;;;;;11.28;5.62;;;;;;;13.40;91.18;99536.11;1719591;83;21040;-80
2022/11/11 11:07:48;;;;;;;12.15;3.72;;;;;;;13.48;88.07;99532.36;1719251;83;21059;-80
2022/11/11 11:10:30;;;;;;;9.98;5.60;;;;;;;13.40;89.00;99532.03;1719093;83;21469;-83
2022/11/11 11:13:36;;;;;;;7.83;4.80;;;;;;;13.28;87.97;99528.14;1718636;83;21154;-80
2022/11/11 11:16:08;;;;;;;9.68;5.22;;;;;;;13.16;88.73;99523.37;1684784;85;21055;-84
2022/11/11 11:18:35;;;;;;;5.75;3.37;;;;;;;13.03;87.57;99523.82;1719205;83;21051;-83
2022/11/11 11:21:05;;;;;;;7.78;3.85;;;;;;;12.98;86.72;99519.95;1719276;83;21456;-80
2022/11/11 11:23:39;;;;;;;5.30;2.87;;;;;;;13.02;86.73;99523.55;1718922;82;21463;-83
2022/11/11 11:26:12;;;;;;;8.75;4.72;;;;;;;13.05;86.70;99513.49;1719267;83;21087;-80
2022/11/11 11:29:00;;;;;;;8.48;4.78;;;;;;;13.12;83.33;99513.55;1719155;83;20988;-80
2022/11/11 11:31:41;;;;;;;10.80;5.13;;;;;;;13.27;84.05;99493.84;1717528;83;21075;-80
2022/11/11 11:34:08;;;;;;;7.65;3.33;;;;;;;13.47;84.07;99492.59;1714058;83;20956;-83
2022/11/11 11:36:35;;;;;;;13.78;3.75;;;;;;;13.66;83.95;99488.89;1714187;83;20991;-80
2022/11/11 11:39:02;;;;;;;7.28;3.87;;;;;;;13.86;81.82;99486.83;1713992;83;21033;-80
2022/11/11 11:41:43;;;;;;;7.60;3.85;;;;;;;14.07;79.77;99485.81;1714086;83;21034;-80
2022/11/11 11:44:32;;;;;;;7.95;3.37;;;;;;;14.17;79.09;99484.22;1704162;83;20998;-80
2022/11/11 11:47:28;;;;;;;10.98;4.55;;;;;;;14.18;80.07;99483.13;1714242;82;21055;-83
2022/11/11 11:50:13;;;;;;;8.83;3.52;;;;;;;14.20;80.74;99487.24;1714382;82;21027;-80
2022/11/11 11:52:48;;;;;;;9.28;3.75;;;;;;;14.14;81.30;99485.58;1714043;82;21478;-80
2022/11/11 11:55:21;;;;;;;9.58;5.05;;;;;;;13.98;78.96;99483.88;1701820;82;20971;-83
2022/11/11 11:57:57;;;;;;;7.65;3.83;;;;;;;13.85;80.07;99478.39;1703029;83;21772;-80
2022/11/11 12:00:29;;;;;;;11.73;3.72;;;;;;;13.75;80.82;99487.84;1678738;85;21076;-80
2022/11/11 12:03:20;;;;;;;6.60;3.27;;;;;;;13.70;79.60;99490.02;1714040;82;20995;-80
2022/11/11 12:05:49;;;;;;;11.85;5.05;;;;;;;13.69;79.66;99482.94;1713602;83;21045;-83
2022/11/11 12:08:42;;;;;;;;;;;;;;;13.77;79.48;99496.05;1716639;83;20970;-80
2022/11/11 12:11:39;;;;;;;11.55;5.70;;;;;;;13.81;78.44;99482.71;1714313;83;20174;-83
2022/11/11 12:14:28;;;;;;;7.40;3.77;;;;;;;13.92;79.90;99487.11;1714035;82;21037;-79
2022/11/11 12:17:27;;;;;;;7.28;3.62;;;;;;;14.04;79.74;99487.73;1713897;83;21017;-83
2022/11/11 12:20:14;;;;;;;;;;;;;;;14.14;77.86;99481.48;1716946;82;21044;-83
2022/11/11 12:22:59;;;;;;;10.10;4.83;;;;;;;14.29;75.25;99478.00;1713876;83;20156;-79
2022/11/11 12:26:01;;;;;;;13.22;6.80;;;;;;;14.26;76.59;99482.60;1714153;83;21437;-79
2022/11/11 12:28:49;;;;;;;7.40;3.62;;;;;;;14.30;74.81;99483.17;1714131;82;21908;-79
2022/11/11 12:31:33;;;;;;;7.37;4.15;;;;;;;14.35;74.68;99484.53;1714224;82;20955;-83
2022/11/11 12:34:24;;;;;;;6.03;3.08;;;;;;;14.42;75.34;99482.92;1713780;83;20987;-80
2022/11/11 12:37:11;;;;;;;6.33;3.33;;;;;;;14.54;73.87;99480.00;1713763;83;20995;-80
2022/11/11 12:40:15;;;;;;;8.10;3.77;;;;;;;14.52;75.86;99476.70;1712749;82;20979;-82